Home > Products > Valid Products > TAF

000
FTUS45 KMSO 261634 AAA
TAFSMN
TAF AMD
KSMN 261634Z 2617/2712 VRB04KT 1/4SM FG OVC002
     FM261900 00000KT 4SM BR VCFG SCT004
     FM262000 VRB03KT P6SM SKC
      AMD LTD TO CLD VIS AND WIND=



000
FTUS45 KMSO 261551 AAB
TAFGPI
TAF AMD
KGPI 261551Z 2616/2712 00000KT 1/4SM FZFG VV002
      TEMPO 2616/2619 00000KT 1SM BR OVC004
     FM261900 17005KT 5SM BR SCT010
     FM270600 00000KT 2SM BR BKN004=



000
FTUS45 KMSO 261452 AAB
TAFMSO
TAF AMD
KMSO 261452Z 2615/2712 00000KT 6SM BR MIFG SKC
     FM261700 VRB03KT P6SM SKC=



000
FTUS45 KMSO 261418 AAA
TAFGPI
TAF AMD
KGPI 261418Z 2614/2712 00000KT 1/4SM FZFG VV002
     FM261600 00000KT 1SM BR OVC004
     FM261900 17005KT 5SM BR SCT010
     FM270600 00000KT 2SM BR BKN004=



000
FTUS45 KMSO 261122 RRA
TAFGPI
TAF
KGPI 261122Z 2611/2712 00000KT 1SM BR OVC002
      TEMPO 2612/2614 1/2SM FZFG OVC001
     FM261700 00000KT 1SM BR OVC004
     FM261900 17005KT 5SM BR SCT010
     FM270600 00000KT 2SM BR BKN004=



000
FTUS45 KMSO 261120 CCA
TAFGPI
TAF COR
KGPI 261120Z 2612/2712 00000KT 1SM BR OVC002
      TEMPO 2612/2614 1/2SM FZFG OVC001
     FM261700 00000KT 1SM BR OVC004
     FM261900 17005KT 5SM BR SCT010
     FM270600 00000KT 2SM BR BKN004=



000
FTUS45 KMSO 261120
TAFGPI
TAF
KGPI 261120Z 2612/2712 00000KT 1SM BR OVC002
      TEMPO 2612/2614 1/2SM FZFG
     FM261700 00000KT 1SM BR OVC004
     FM261900 17005KT 5SM BR SCT010
     FM270600 00000KT 2SM BR BKN004=



000
FTUS45 KMSO 261120
TAFSMN
TAF
KSMN 261120Z 2612/2712 VRB04KT 1/2SM FG OVC002
     FM261700 00000KT 4SM BR VCFG SCT004
     FM261900 VRB03KT P6SM SKC
      AMD LTD TO CLD VIS AND WIND=



000
FTUS45 KMSO 261120
TAFMSO
TAF
KMSO 261120Z 2612/2712 VRB05KT 6SM BR VCFG SKC
     FM261400 00000KT 4SM BR SCT004
     FM261600 VRB03KT P6SM SKC=



000
FTUS45 KMSO 261120
TAFBTM
TAF
KBTM 261120Z 2612/2712 VRB05KT P6SM SKC
     FM262000 25010KT P6SM SKC=



000
FTUS45 KMSO 260959 AAB
TAFMSO
TAF AMD
KMSO 260959Z 2610/2706 VRB05KT 6SM BR VCFG SKC
     FM261200 00000KT 4SM BR SCT004
     FM261800 VRB03KT P6SM SCT010=



000
FTUS45 KMSO 260955 AAA
TAFGPI
TAF AMD
KGPI 260955Z 2610/2706 00000KT 1/2SM FZFG OVC001
     FM261700 00000KT 1SM BR OVC003
     FM261900 17005KT 5SM BR SCT010=



000
FTUS45 KMSO 260712 AAA
TAFSMN
TAF AMD
KSMN 260712Z 2607/2706 VRB04KT 1SM BR SCT005
     FM261400 00000KT 4SM BR VCFG SCT004 SCT050
     FM261600 VRB03KT P6SM SCT100
      AMD LTD TO CLD VIS AND WIND=



000
FTUS45 KMSO 260523
TAFGPI
TAF
KGPI 260523Z 2606/2706 00000KT 2SM BR SCT001
      TEMPO 2606/2608 1/2SM FG
     FM260800 00000KT 1/2SM FZFG OVC010
     FM261700 17005KT P6SM SCT010=



000
FTUS45 KMSO 260523
TAFMSO
TAF
KMSO 260523Z 2606/2706 VRB05KT P6SM SKC
     FM261000 00000KT 2SM BR SCT004
      TEMPO 2610/2614 3/4SM BR
     FM261800 VRB03KT P6SM SCT010=



000
FTUS45 KMSO 260523
TAFSMN
TAF
KSMN 260523Z 2606/2706 VRB04KT P6SM SKC
     FM261400 00000KT 4SM BR VCFG SCT004 SCT050
     FM261600 VRB03KT P6SM SCT100
      AMD LTD TO CLD VIS AND WIND=



000
FTUS45 KMSO 260523
TAFBTM
TAF
KBTM 260523Z 2606/2706 VRB05KT P6SM SCT100=



000
FTUS45 KMSO 260219 AAA
TAFMSO
TAF AMD
KMSO 260219Z 2602/2624 VRB05KT P6SM SKC
     FM260800 00000KT 2SM BR SCT004 BKN025
     FM261200 00000KT 1/2SM FG SCT001 BKN004
     FM261500 VRB02KT 3SM BR SCT004
     FM261800 VRB03KT P6SM SCT010=



000
FTUS45 KMSO 252320
TAFGPI
TAF
KGPI 252320Z 2600/2624 VRB05KT P6SM SKC
     FM260400 VRB03KT 4SM BR BKN015
     FM260900 00000KT 2SM BR OVC010
     FM261900 17005KT P6SM SCT010=



000
FTUS45 KMSO 252320
TAFBTM
TAF
KBTM 252320Z 2600/2624 VRB05KT P6SM SCT100=



000
FTUS45 KMSO 252320
TAFMSO
TAF
KMSO 252320Z 2600/2624 VRB05KT P6SM SKC
     FM260300 VRB03KT 4SM BR SCT025
     FM260800 00000KT 2SM BR SCT004 BKN025
     FM261000 00000KT 1/2SM FG SCT001 BKN004
     FM261800 VRB03KT P6SM SCT010=



000
FTUS45 KMSO 252320
TAFSMN
TAF
KSMN 252320Z 2600/2624 VRB04KT P6SM SKC
     FM261400 00000KT 4SM BR VCFG SCT004 SCT050
     FM261600 VRB03KT P6SM SCT100
      AMD LTD TO CLD VIS AND WIND=



000
FTUS45 KMSO 252050 AAA
TAFGPI
TAF AMD
KGPI 252050Z 2521/2618 00000KT P6SM SCT100
     FM260400 VRB03KT 4SM BR BKN015
     FM260900 VRB03KT 2SM BR VCFG OVC010=



000
FTUS45 KMSO 252045 AAA
TAFMSO
TAF AMD
KMSO 252045Z 2521/2618 VRB03KT P6SM SCT100
     FM260300 VRB03KT 4SM BR SCT025
     FM260800 00000KT 2SM BR VCFG SCT004 BKN025
     FM261000 00000KT 1/2SM FG SCT001 BKN004=



000
FTUS45 KMSO 251740
TAFBTM
TAF
KBTM 251740Z 2518/2618 VRB05KT P6SM SCT100=



000
FTUS45 KMSO 251740
TAFSMN
TAF
KSMN 251740Z 2518/2618 VRB04KT P6SM BKN050
     FM260600 00000KT 4SM BR VCFG SCT004 SCT050
      AMD LTD TO CLD VIS AND WIND=



000
FTUS45 KMSO 251740
TAFGPI
TAF
KGPI 251740Z 2518/2618 24007KT P6SM BKN050
     FM252100 18005KT P6SM SCT020
     FM260300 VRB03KT 4SM BR BKN015
     FM260900 VRB03KT 2SM BR VCFG OVC010=



000
FTUS45 KMSO 251740
TAFMSO
TAF
KMSO 251740Z 2518/2618 VRB03KT 1/4SM FG BKN002
      TEMPO 2518/2520 1SM BR SCT010
     FM252000 VRB03KT P6SM SCT040
     FM260300 VRB03KT 4SM BR SCT025
     FM260900 VRB03KT 2SM BR VCFG SCT004 BKN025=



000
FTUS45 KMSO 251537 AAB
TAFMSO
TAF AMD
KMSO 251537Z 2516/2612 VRB03KT 1/4SM FG BKN002
      TEMPO 2516/2518 1SM BR
     FM251800 VRB03KT 4SM BR SCT010 SCT040
     FM251900 VRB03KT P6SM SCT040
     FM260300 VRB03KT 4SM BR SCT025
     FM260900 VRB03KT 2SM BR VCFG SCT004 BKN025=



000
FTUS45 KMSO 251506 AAA
TAFGPI
TAF AMD
KGPI 251506Z 2515/2612 24007KT P6SM BKN050
     FM252100 18005KT P6SM SCT020
     FM260300 VRB03KT 4SM BR BKN015
     FM260900 VRB03KT 2SM BR VCFG OVC010=



000
FTUS45 KMSO 251316 AAA
TAFMSO
TAF AMD
KMSO 251316Z 2513/2612 VRB03KT 1/2SM FG BKN003 BKN045
      TEMPO 2513/2515 1/4SM FG BKN002
     FM251700 VRB03KT P6SM SCT045
     FM260300 VRB03KT 4SM BR SCT025
     FM260900 VRB03KT 2SM BR VCFG SCT004 BKN025=



000
FTUS45 KMSO 251120
TAFBTM
TAF
KBTM 251120Z 2512/2612 VRB04KT P6SM SCT050
     FM251700 31005KT P6SM SCT100=



000
FTUS45 KMSO 251120
TAFMSO
TAF
KMSO 251120Z 2512/2612 VRB03KT 4SM BR VCFG SCT004 BKN045
      TEMPO 2512/2514 1SM BR BKN004
     FM252000 VRB03KT P6SM SCT045
     FM260300 VRB03KT 4SM BR SCT025
     FM260900 VRB03KT 2SM BR VCFG SCT004 BKN025=



000
FTUS45 KMSO 251120
TAFSMN
TAF
KSMN 251120Z 2512/2612 VRB04KT P6SM BKN050
     FM260600 00000KT 4SM BR VCFG SCT004 SCT050
      AMD LTD TO CLD VIS AND WIND=



000
FTUS45 KMSO 251120
TAFGPI
TAF
KGPI 251120Z 2512/2612 20006KT P6SM OVC035
     FM251400 20004KT 5SM BR OVC020
     FM252100 18005KT P6SM SCT020
     FM260300 VRB03KT 4SM BR BKN015
     FM260900 VRB03KT 2SM BR VCFG OVC010=



000
FTUS45 KMSO 251051 AAB
TAFMSO
TAF AMD
KMSO 251051Z 2511/2606 VRB03KT 4SM BR VCFG SCT004 BKN040
      TEMPO 2511/2513 1SM BR BKN004
     FM252000 VRB03KT P6SM SCT025=



000
FTUS45 KMSO 251043 AAA
TAFSMN
TAF AMD
KSMN 251043Z 2511/2606 VRB04KT P6SM BKN050
      AMD LTD TO CLD VIS AND WIND=



000
FTUS45 KMSO 250922 AAC
TAFMSO
TAF AMD
KMSO 250922Z 2509/2606 VRB03KT 4SM BR VCFG FEW005 BKN040
      TEMPO 2509/2511 3/4SM BR
     FM252000 VRB03KT P6SM SCT025=



000
FTUS45 KMSO 250902 AAB
TAFMSO
TAF AMD
KMSO 250902Z 2509/2606 VRB03KT 4SM BR VCFG FEW005 BKN040
     FM252000 VRB03KT P6SM SCT025=



000
FTUS45 KMSO 250755 AAA
TAFMSO
TAF AMD
KMSO 250755Z 2508/2606 VRB03KT 3SM BR FEW005 BKN050
      TEMPO 2508/2510 3/4SM BR
     FM251100 VRB02KT 4SM BR OVC025
     FM252000 VRB03KT P6SM SCT025=



000
FTUS45 KMSO 250520
TAFGPI
TAF
KGPI 250520Z 2506/2606 VRB05KT 6SM -SHRA BKN035 OVC040
     FM250800 19003KT P6SM OVC035
     FM251000 VRB03KT 5SM BR OVC015
     FM252100 18005KT P6SM SCT015=



000
FTUS45 KMSO 250520
TAFBTM
TAF
KBTM 250520Z 2506/2606 29005KT P6SM VCSH OVC035
     FM250800 VRB03KT P6SM SCT040 BKN050
     FM251200 00000KT P6SM SCT010
     FM251700 31005KT P6SM SCT100=



000
FTUS45 KMSO 250520
TAFMSO
TAF
KMSO 250520Z 2506/2606 VRB03KT P6SM VCSH OVC040
     FM250700 VRB03KT P6SM SCT030 OVC050
     FM251100 VRB02KT 5SM BR OVC025
     FM252000 VRB03KT P6SM SCT025=



000
FTUS45 KMSO 250520
TAFSMN
TAF
KSMN 250520Z 2506/2606 VRB03KT P6SM VCSH OVC050
     FM250800 VRB03KT P6SM BKN050
     FM251100 00000KT 5SM BR OVC015
     FM251800 VRB03KT P6SM SKC
      AMD LTD TO CLD VIS AND WIND=



000
FTUS45 KMSO 242333
TAFMSO
TAF
KMSO 242333Z 2500/2524 18006KT P6SM -SHRA BKN040 OVC080
     FM250200 VRB05KT 5SM -RA BR OVC030
     FM250600 VRB03KT P6SM SCT030 OVC050
     FM251100 VRB02KT 5SM BR OVC025
     FM252000 VRB03KT P6SM SCT025=



000
FTUS45 KMSO 242333
TAFGPI
TAF
KGPI 242333Z 2500/2524 18008KT 5SM HZ VCSH BKN035 OVC050
     FM250600 19003KT P6SM OVC035
     FM251000 VRB03KT 5SM BR OVC015
     FM252100 18005KT P6SM SCT015=



000
FTUS45 KMSO 242333
TAFSMN
TAF
KSMN 242333Z 2500/2524 VRB03KT P6SM VCSH BKN040 OVC050
     FM250600 VRB03KT P6SM BKN050
      AMD LTD TO CLD VIS AND WIND=



000
FTUS45 KMSO 242333
TAFBTM
TAF
KBTM 242333Z 2500/2524 29005KT P6SM VCSH BKN045 OVC080
     FM250800 VRB03KT P6SM SCT040 BKN050
     FM251200 00000KT P6SM SCT010
     FM251700 31005KT P6SM BKN100=



000
FTUS45 KMSO 242106 AAB
TAFMSO
TAF AMD
KMSO 242106Z 2421/2518 18006KT P6SM VCSH BKN040
     FM250000 VRB05KT 5SM -RA BR OVC030
     FM250600 VRB02KT 5SM BR OVC025=



000
FTUS45 KMSO 241935 CCA
TAFSMN
TAF COR
KSMN 241935Z 2420/2518 VRB03KT P6SM VCSH BKN040 OVC050
     FM250400 VRB03KT P6SM OVC050
      AMD LTD TO CLD VIS AND WIND=



000
FTUS45 KMSO 241932 AAA
TAFSMN
TAF AMD
KSMN 241932Z 2420/2518 VRB03KT P6SM BKN040
      AMD LTD TO CLD VIS AND WIND=



000
FTUS45 KMSO 241720
TAFGPI
TAF
KGPI 241720Z 2418/2518 VRB04KT P6SM OVC035
     FM242300 22003KT 5SM -RA BR OVC025
     FM250600 19003KT P6SM OVC035=



000
FTUS45 KMSO 241720
TAFMSO
TAF
KMSO 241720Z 2418/2518 VRB03KT 6SM -RA BR OVC035
     FM242300 32003KT 5SM -RA BR OVC025
     FM250600 VRB02KT 5SM BR OVC025=



000
FTUS45 KMSO 241720
TAFSMN
TAF
KSMN 241720Z 2418/2518 VRB03KT P6SM VCSH BKN040
      AMD LTD TO CLD VIS AND WIND=



000
FTUS45 KMSO 241720
TAFBTM
TAF
KBTM 241720Z 2418/2518 29005KT P6SM VCSH BKN040=



000
FTUS45 KMSO 241547 AAA
TAFGPI
TAF AMD
KGPI 241547Z 2416/2512 VRB04KT P6SM OVC035
     FM242300 VRB03KT 5SM -RA BR OVC010=



000
FTUS45 KMSO 241547 AAA
TAFGPI
TAF AMD
KGPI 241547Z 2416/2512 VRB04KT P6SM OVC035
     FM242300 VRB03KT 5SM -RA BR OVC010=



000
FTUS45 KMSO 241120
TAFGPI
TAF
KGPI 241120Z 2412/2512 VRB04KT 6SM -RA SCT025 OVC035
     FM242300 VRB03KT 5SM -RA BR OVC010=



000
FTUS45 KMSO 241120
TAFBTM
TAF
KBTM 241120Z 2412/2512 33004KT P6SM SCT025 OVC050
     FM241600 27004KT P6SM VCSH BKN025=



000
FTUS45 KMSO 241120
TAFSMN
TAF
KSMN 241120Z 2412/2512 VRB04KT P6SM OVC050
     FM241600 VRB03KT P6SM VCSH BKN025
      AMD LTD TO CLD VIS AND WIND=



000
FTUS45 KMSO 241120
TAFMSO
TAF
KMSO 241120Z 2412/2512 VRB03KT 6SM -RA BR OVC035
     FM242300 VRB03KT 5SM -RA BR OVC015=



000
FTUS45 KMSO 240910 AAA
TAFGPI
TAF AMD
KGPI 240910Z 2409/2506 22006KT P6SM OVC025
      TEMPO 2409/2411 5SM -RA BR
     FM241300 VRB03KT 6SM -RA BR OVC020
     FM242200 VRB03KT 5SM -RA BR OVC010=



000
FTUS45 KMSO 240525
TAFBTM
TAF
KBTM 240525Z 2406/2506 33004KT P6SM SCT025 BKN050
     FM241600 27004KT P6SM VCSH OVC025=



000
FTUS45 KMSO 240525
TAFMSO
TAF
KMSO 240525Z 2406/2506 VRB03KT P6SM BKN050
     FM241100 VRB03KT 5SM -FZDZ BR OVC025
     FM241600 VRB03KT 5SM -RA BR OVC015=



000
FTUS45 KMSO 240525
TAFGPI
TAF
KGPI 240525Z 2406/2506 20006KT P6SM OVC025
     FM240900 VRB03KT 4SM -FZRA BR OVC010
     FM241600 VRB03KT 5SM -RA BR OVC010=



000
FTUS45 KMSO 240525
TAFSMN
TAF
KSMN 240525Z 2406/2506 VRB04KT P6SM SCT025 BKN035
     FM241600 VRB03KT P6SM VCSH BKN025
      AMD LTD TO CLD VIS AND WIND=



000
FTUS45 KMSO 232334
TAFMSO
TAF
KMSO 232334Z 2400/2424 VRB03KT P6SM BKN050
     FM240600 VRB03KT 5SM -SHRA BR OVC035=



000
FTUS45 KMSO 232334
TAFGPI
TAF
KGPI 232334Z 2400/2424 VRB03KT 6SM BR OVC025
     FM240400 VRB03KT 4SM -SNRA BR OVC010
     FM240600 VRB03KT 4SM -FZRA BR OVC010
     FM241600 VRB03KT 5SM -RA BR OVC010=



000
FTUS45 KMSO 232334
TAFSMN
TAF
KSMN 232334Z 2400/2424 VRB04KT P6SM SCT025 BKN035
      AMD LTD TO CLD VIS AND WIND=



000
FTUS45 KMSO 232334
TAFBTM
TAF
KBTM 232334Z 2400/2424 33004KT P6SM SCT025 BKN050=



000
FTUS45 KMSO 232234 AAC
TAFGPI
TAF AMD
KGPI 232234Z 2323/2418 VRB03KT 6SM BR OVC025
     FM240400 VRB03KT 4SM -SNRA BR OVC010
     FM240600 VRB03KT 4SM -FZRA BR OVC010
     FM241600 VRB03KT 5SM -RA BR OVC010=



000
FTUS45 KMSO 231909 AAB
TAFGPI
TAF AMD
KGPI 231909Z 2319/2418 VRB03KT 5SM BR BKN008 OVC025
     FM240400 VRB03KT 4SM -SNRA BR OVC010
     FM240600 VRB03KT 4SM -FZRA BR OVC010
     FM241600 VRB03KT 5SM -RA BR OVC010=



000
FTUS45 KMSO 231908 AAA
TAFGPI
TAF AMD
KGPI 231908Z 2319/2418 VRB03KT 5SM BR BKN008 OVC025
     FM240400 VRB03KT 4SM -FZRA BR OVC010=



000
FTUS45 KMSO 231755
TAFGPI
TAF
KGPI 231755Z 2318/2418 VRB03KT 5SM BR BKN008 OVC025
     FM231900 28005KT 6SM HZ OVC035
     FM240400 VRB03KT 4SM -FZRA BR OVC010=



000
FTUS45 KMSO 231755
TAFMSO
TAF
KMSO 231755Z 2318/2418 VRB03KT P6SM BKN050
     FM240600 VRB03KT 5SM -RA BR OVC025=



000
FTUS45 KMSO 231755
TAFSMN
TAF
KSMN 231755Z 2318/2418 VRB04KT P6SM BKN050
      AMD LTD TO CLD VIS AND WIND=



000
FTUS45 KMSO 231755
TAFBTM
TAF
KBTM 231755Z 2318/2418 33004KT P6SM BKN050=



    US Dept of Commerce
    National Oceanic and Atmospheric Administration
    National Weather Service
    1325 East West Highway
    Silver Spring, MD 20910
    Page Author: NWS Internet Services Team
Disclaimer
Information Quality
Credits
Glossary
Privacy Policy
Freedom of Information Act (FOIA)
About Us
Career Opportunities